Terminal Aerodrome Forecast
Issued by NWS Charleston, SC

Home | Current Version | Previous Version | Text Only | Print | Product List | Glossary On
Versions: 1 2 3 4 5 6 7 8 9 10 11 12 13 14 15 16
000
FTUS42 KCHS 281135
TAFSAV
TAF
KSAV 281135Z 2812/0112 04012G17KT P6SM SCT025 BKN050
     FM281600 05014G20KT P6SM VCSH SCT015 BKN035
     FM282100 05014G20KT P6SM VCSH SCT012 BKN025
     FM010600 02012G17KT 6SM -SHRA BR BKN006 OVC012=

USA.gov is the U.S. government's official web portal to all federal, state and local government web resources and services.